Time;durP1;ratioP1;P1;durP2;ratioP2;P2;SDS_P1;SDS_P2;PMS_P1;PMS_P2;Temp;Humidity;BMP_temperature;BMP_pressure;BME280_temperature;BME280_humidity;BME280_pressure;Samples;Min_cycle;Max_cycle;Signal;HPM_P1;HPM_P2
2022/07/27 00:00:15;;;;;;;;;;;;;;;22.28;43.46;100410.16;1714433;83;25876;-62
2022/07/27 00:02:43;;;;;;;;;;;;;;;22.28;43.40;100407.42;1715016;83;25791;-62
2022/07/27 00:05:10;;;;;;;;;;;;;;;22.30;43.61;100415.75;1714736;83;27397;-62
2022/07/27 00:07:36;;;;;;;;;;;;;;;22.28;43.45;100412.39;1714621;83;25489;-62
2022/07/27 00:10:04;;;;;;;;;;;;;;;22.28;43.70;100411.02;1712129;82;25751;-62
2022/07/27 00:12:31;;;;;;;;;;;;;;;22.28;44.33;100412.39;1717055;83;26473;-62
2022/07/27 00:14:58;;;;;;;;;;;;;;;22.25;44.23;100416.93;1719946;83;25780;-62
2022/07/27 00:17:25;;;;;;;;;;;;;;;22.24;43.91;100408.40;1719683;82;28364;-62
2022/07/27 00:19:52;;;;;;;;;;;;;;;22.15;45.37;100417.95;1719868;82;25749;-62
2022/07/27 00:22:18;;;;;;;;;;;;;;;22.05;45.11;100422.56;1716464;83;25756;-62
2022/07/27 00:24:45;;;;;;;;;;;;;;;22.02;44.74;100420.25;1714971;81;26022;-62
2022/07/27 00:27:11;;;;;;;;;;;;;;;22.01;44.73;100421.31;1715062;82;25646;-62
2022/07/27 00:29:38;;;;;;;;;;;;;;;21.99;45.15;100416.61;1712227;82;27428;-62
2022/07/27 00:32:06;;;;;;;;;;;;;;;21.90;44.88;100418.75;1722218;82;25713;-62
2022/07/27 00:34:33;;;;;;;;;;;;;;;21.89;44.97;100421.17;1739567;82;25765;-62
2022/07/27 00:36:59;;;;;;;;;;;;;;;21.88;44.89;100418.98;1740208;81;25851;-62
2022/07/27 00:39:26;;;;;;;;;;;;;;;21.91;44.85;100416.87;1722053;82;25704;-62
2022/07/27 00:41:52;;;;;;;;;;;;;;;21.91;44.88;100419.06;1715184;82;27488;-62
2022/07/27 00:44:29;;;;;;;;;;;;;;;21.90;44.70;100416.02;1710020;83;25902;-62
2022/07/27 00:46:56;;;;;;;;;;;;;;;21.89;44.47;100419.30;1712154;82;25708;-62
2022/07/27 00:49:25;;;;;;;;;;;;;;;21.88;44.07;100424.46;1715246;83;25728;-61
2022/07/27 00:51:53;;;;;;;;;;;;;;;21.88;43.77;100416.25;1714949;83;25803;-62
2022/07/27 00:54:21;;;;;;;;;;;;;;;21.89;43.55;100415.70;1714876;82;27515;-61
2022/07/27 00:56:48;;;;;;;;;;;;;;;21.87;43.31;100416.47;1714819;82;25438;-62
2022/07/27 00:59:15;;;;;;;;;;;;;;;21.87;42.99;100407.72;1707763;82;25872;-62
2022/07/27 01:01:41;;;;;;;;;;;;;;;21.91;42.57;100411.39;1712615;82;25784;-62
2022/07/27 01:04:08;;;;;;;;;;;;;;;21.89;42.39;100406.97;1692293;82;25789;-62
2022/07/27 01:06:35;;;;;;;;;;;;;;;21.90;42.13;100409.17;1716778;82;27414;-61
2022/07/27 01:11:47;;;;;;;;;;;;;;;21.91;42.12;100407.28;1714916;82;25783;-62
2022/07/27 01:14:15;;;;;;;;;;;;;;;21.89;41.95;100400.13;1686331;85;25808;-62
2022/07/27 01:16:43;;;;;;;;;;;;;;;21.87;42.04;100402.78;1704630;82;25858;-62
2022/07/27 01:19:10;;;;;;;;;;;;;;;21.86;41.98;100407.41;1739902;82;27451;-62
2022/07/27 01:21:37;;;;;;;;;;;;;;;21.87;41.87;100406.89;1740017;82;25760;-62
2022/07/27 01:24:06;;;;;;;;;;;;;;;21.87;41.87;100404.98;1739790;82;25733;-62
2022/07/27 01:26:35;;;;;;;;;;;;;;;21.87;41.88;100406.34;1731985;82;25792;-60
2022/07/27 01:29:02;;;;;;;;;;;;;;;21.85;41.73;100401.61;1713229;83;25761;-62
2022/07/27 01:31:29;;;;;;;;;;;;;;;21.83;41.51;100396.05;1714887;83;27538;-62
2022/07/27 01:33:56;;;;;;;;;;;;;;;21.82;41.47;100397.11;1714790;82;25835;-62
2022/07/27 01:36:23;;;;;;;;;;;;;;;21.82;41.56;100394.38;1722731;82;25765;-62
2022/07/27 01:38:49;;;;;;;;;;;;;;;21.82;41.46;100392.49;1740044;80;25799;-62
2022/07/27 01:41:15;;;;;;;;;;;;;;;21.83;41.45;100390.03;1740111;82;25494;-62
2022/07/27 01:43:43;;;;;;;;;;;;;;;21.83;41.45;100385.92;1719652;82;27513;-62
2022/07/27 01:46:11;;;;;;;;;;;;;;;21.85;41.34;100390.66;1713024;82;26584;-62
2022/07/27 01:48:37;;;;;;;;;;;;;;;21.78;41.05;100391.23;1711377;84;25495;-62
2022/07/27 01:51:03;;;;;;;;;;;;;;;21.73;41.21;100386.97;1711328;84;25812;-62
2022/07/27 01:53:30;;;;;;;;;;;;;;;21.72;41.23;100390.76;1711735;83;25985;-62
2022/07/27 01:55:56;;;;;;;;;;;;;;;21.75;41.20;100394.41;1714488;82;27550;-62
2022/07/27 01:58:24;;;;;;;;;;;;;;;21.77;41.19;100390.10;1708593;83;25727;-62
2022/07/27 02:00:50;;;;;;;;;;;;;;;21.81;41.12;100396.80;1710250;83;25739;-62
2022/07/27 02:03:17;;;;;;;;;;;;;;;21.82;41.27;100393.86;1715140;82;25815;-62
2022/07/27 02:05:43;;;;;;;;;;;;;;;21.83;41.32;100398.80;1714858;82;25784;-62
2022/07/27 02:08:10;;;;;;;;;;;;;;;21.81;41.53;100400.39;1715038;82;27502;-62
2022/07/27 02:12:34;;;;;;;;;;;;;;;21.79;41.72;100402.50;1715287;82;26205;-62
2022/07/27 02:13:05;;;;;;;;;;;;;;;21.77;41.79;100402.42;1705523;82;25745;-61
2022/07/27 02:15:31;;;;;;;;;;;;;;;21.72;41.81;100405.27;1706969;84;25765;-62
2022/07/27 02:17:58;;;;;;;;;;;;;;;21.66;41.80;100403.94;1707105;84;26044;-62
2022/07/27 02:20:25;;;;;;;;;;;;;;;21.58;41.81;100400.94;1706629;84;27498;-62
2022/07/27 02:22:51;;;;;;;;;;;;;;;21.56;42.00;100395.63;1712272;82;25766;-62
2022/07/27 02:25:19;;;;;;;;;;;;;;;21.55;42.37;100399.45;1737680;81;25717;-62
2022/07/27 02:27:47;;;;;;;;;;;;;;;21.54;42.41;100401.02;1716824;82;25844;-62
2022/07/27 02:30:14;;;;;;;;;;;;;;;21.47;42.33;100411.98;1715506;82;25780;-62
2022/07/27 02:32:42;;;;;;;;;;;;;;;21.42;42.85;100404.46;1740366;82;28132;-62
2022/07/27 02:35:09;;;;;;;;;;;;;;;21.42;42.73;100408.56;1738954;81;25740;-62
2022/07/27 02:37:36;;;;;;;;;;;;;;;21.42;42.73;100409.08;1740094;82;25748;-62
2022/07/27 02:40:03;;;;;;;;;;;;;;;21.41;43.11;100410.13;1731663;82;25802;-62
2022/07/27 02:42:30;;;;;;;;;;;;;;;21.41;43.16;100407.39;1706874;82;25975;-62
2022/07/27 02:44:56;;;;;;;;;;;;;;;21.39;43.16;100413.60;1706746;83;27604;-62
2022/07/27 02:47:23;;;;;;;;;;;;;;;21.35;43.11;100413.20;1715140;82;25712;-62
2022/07/27 02:49:50;;;;;;;;;;;;;;;21.35;43.16;100417.84;1718913;82;25768;-62
2022/07/27 02:52:16;;;;;;;;;;;;;;;21.34;43.03;100414.80;1739884;81;25847;-62
2022/07/27 02:54:43;;;;;;;;;;;;;;;21.34;42.96;100416.98;1740137;81;25750;-62
2022/07/27 02:57:09;;;;;;;;;;;;;;;21.34;43.11;100419.72;1708605;82;27369;-62
2022/07/27 02:59:36;;;;;;;;;;;;;;;21.32;43.12;100420.49;1707294;82;25612;-62
2022/07/27 03:02:03;;;;;;;;;;;;;;;21.33;43.33;100422.69;1715067;83;25747;-61
2022/07/27 03:04:30;;;;;;;;;;;;;;;21.33;43.25;100421.32;1714999;83;25959;-62
2022/07/27 03:06:57;;;;;;;;;;;;;;;21.34;43.04;100423.00;1714878;83;25701;-60
2022/07/27 03:09:23;;;;;;;;;;;;;;;21.32;43.19;100425.11;1714694;82;27503;-62
2022/07/27 03:11:50;;;;;;;;;;;;;;;21.31;43.08;100428.38;1705643;83;26020;-62
2022/07/27 03:14:17;;;;;;;;;;;;;;;21.31;43.02;100433.00;1706967;84;25711;-62
2022/07/27 03:16:43;;;;;;;;;;;;;;;21.31;42.98;100435.23;1707060;83;25855;-62
2022/07/27 03:19:10;;;;;;;;;;;;;;;21.31;42.83;100439.33;1706936;82;25466;-62
2022/07/27 03:21:40;;;;;;;;;;;;;;;21.33;42.77;100453.64;1735379;82;27475;-62
2022/07/27 03:24:07;;;;;;;;;;;;;;;21.33;42.79;100456.89;1732460;80;25784;-62
2022/07/27 03:26:34;;;;;;;;;;;;;;;21.22;43.33;100463.33;1691064;83;25737;-62
2022/07/27 03:29:00;;;;;;;;;;;;;;;21.16;43.57;100461.45;1709200;84;27965;-62
2022/07/27 03:31:27;;;;;;;;;;;;;;;21.14;43.49;100463.56;1708866;83;25773;-63
2022/07/27 03:33:53;;;;;;;;;;;;;;;21.02;44.58;100472.13;1709222;84;27578;-62
2022/07/27 03:36:20;;;;;;;;;;;;;;;20.94;44.89;100472.63;1709082;84;26417;-62
2022/07/27 03:38:47;;;;;;;;;;;;;;;20.92;45.11;100477.50;1709387;83;25703;-62
2022/07/27 03:41:14;;;;;;;;;;;;;;;20.94;44.68;100471.27;1709008;83;25866;-63
2022/07/27 03:43:40;;;;;;;;;;;;;;;20.99;44.77;100478.01;1709606;84;26030;-63
2022/07/27 03:46:07;;;;;;;;;;;;;;;21.03;44.88;100473.77;1707059;84;27542;-63
2022/07/27 03:48:34;;;;;;;;;;;;;;;21.07;45.76;100478.61;1690369;84;27139;-63
2022/07/27 03:51:00;;;;;;;;;;;;;;;21.07;45.82;100475.05;1707020;83;25797;-62
2022/07/27 03:53:27;;;;;;;;;;;;;;;21.10;45.54;100477.37;1716753;83;25745;-62
2022/07/27 03:55:54;;;;;;;;;;;;;;;21.17;45.90;100485.53;1716640;83;25705;-63
2022/07/27 03:58:22;;;;;;;;;;;;;;;21.15;45.61;100487.67;1716745;83;27464;-63
2022/07/27 04:00:49;;;;;;;;;;;;;;;21.15;46.23;100499.44;1711478;83;25487;-63
2022/07/27 04:03:17;;;;;;;;;;;;;;;21.20;46.01;100493.33;1708717;84;25783;-63
2022/07/27 04:05:44;;;;;;;;;;;;;;;21.27;45.64;100485.94;1709014;82;25800;-63
2022/07/27 04:08:10;;;;;;;;;;;;;;;21.36;45.61;100491.49;1708959;83;25868;-62
2022/07/27 04:10:36;;;;;;;;;;;;;;;21.44;45.35;100484.95;1709361;84;27476;-63
2022/07/27 04:13:03;;;;;;;;;;;;;;;21.52;45.35;100486.08;1708918;83;25952;-63
2022/07/27 04:15:29;;;;;;;;;;;;;;;21.59;45.53;100484.73;1680857;85;25483;-62
2022/07/27 04:17:56;;;;;;;;;;;;;;;21.66;44.53;100486.91;1698718;82;25850;-63
2022/07/27 04:20:22;;;;;;;;;;;;;;;21.71;44.08;100497.20;1709385;83;25769;-63
2022/07/27 04:22:49;;;;;;;;;;;;;;;21.69;43.92;100499.31;1709223;82;27422;-62
2022/07/27 04:25:16;;;;;;;;;;;;;;;21.69;43.67;100496.06;1712245;83;26141;-62
2022/07/27 04:27:42;;;;;;;;;;;;;;;21.73;43.59;100496.47;1714906;83;25633;-63
2022/07/27 04:30:10;;;;;;;;;;;;;;;21.76;43.81;100500.12;1714791;82;25797;-63
2022/07/27 04:32:37;;;;;;;;;;;;;;;21.80;44.09;100494.53;1709528;83;25738;-63
2022/07/27 04:35:05;;;;;;;;;;;;;;;21.82;44.14;100495.16;1732885;82;27552;-63
2022/07/27 04:37:32;;;;;;;;;;;;;;;21.84;44.08;100497.13;1740292;82;25792;-63
2022/07/27 04:40:00;;;;;;;;;;;;;;;21.87;44.09;100494.52;1739905;82;25709;-62
2022/07/27 04:42:28;;;;;;;;;;;;;;;21.92;43.99;100494.69;1740307;82;25794;-63
2022/07/27 04:44:55;;;;;;;;;;;;;;;21.94;44.05;100494.45;1720213;82;25779;-63
2022/07/27 04:47:21;;;;;;;;;;;;;;;21.94;44.58;100509.01;1708365;83;27473;-63
2022/07/27 04:49:48;;;;;;;;;;;;;;;21.89;44.52;100517.88;1706683;83;25785;-63
2022/07/27 04:52:16;;;;;;;;;;;;;;;21.85;44.76;100515.25;1706630;82;25689;-63
2022/07/27 04:54:42;;;;;;;;;;;;;;;21.85;44.69;100517.98;1711744;82;25829;-63
2022/07/27 04:57:09;;;;;;;;;;;;;;;21.89;44.84;100521.13;1715240;83;25974;-62
2022/07/27 04:59:36;;;;;;;;;;;;;;;21.91;44.83;100522.30;1714834;83;27458;-63
2022/07/27 05:02:02;;;;;;;;;;;;;;;21.91;44.70;100526.41;1714623;83;26040;-63
2022/07/27 05:04:29;;;;;;;;;;;;;;;21.95;44.52;100528.49;1732021;82;26460;-63
2022/07/27 05:06:56;;;;;;;;;;;;;;;21.99;44.86;100539.84;1740206;82;25932;-63
2022/07/27 05:09:22;;;;;;;;;;;;;;;22.02;44.62;100529.30;1739664;82;26133;-63
2022/07/27 05:11:51;;;;;;;;;;;;;;;22.03;44.36;100533.72;1740138;82;46338;-63
2022/07/27 05:14:17;;;;;;;;;;;;;;;21.94;44.09;100538.27;1724013;82;25711;-63
2022/07/27 05:16:43;;;;;;;;;;;;;;;21.89;44.13;100535.67;1714087;83;25701;-62
2022/07/27 05:19:11;;;;;;;;;;;;;;;21.86;43.86;100537.47;1715097;83;26576;-62
2022/07/27 05:21:38;;;;;;;;;;;;;;;21.86;43.71;100536.09;1714597;82;25744;-62
2022/07/27 05:24:06;;;;;;;;;;;;;;;21.91;43.64;100542.30;1714599;82;27457;-63
2022/07/27 05:26:32;;;;;;;;;;;;;;;21.98;43.65;100547.20;1714475;83;25779;-62
2022/07/27 05:28:59;;;;;;;;;;;;;;;22.03;43.39;100555.63;1713533;83;25760;-62
2022/07/27 05:31:26;;;;;;;;;;;;;;;22.10;43.00;100550.64;1697404;83;26393;-62
2022/07/27 05:33:53;;;;;;;;;;;;;;;22.15;42.98;100545.33;1707603;83;25754;-63
2022/07/27 05:36:19;;;;;;;;;;;;;;;22.22;42.93;100550.27;1701989;82;27496;-63
2022/07/27 05:38:46;;;;;;;;;;;;;;;22.29;42.43;100551.07;1708122;83;27185;-62
2022/07/27 05:41:12;;;;;;;;;;;;;;;22.38;42.43;100558.48;1710386;83;25720;-62
2022/07/27 05:43:38;;;;;;;;;;;;;;;22.45;42.28;100557.11;1707584;83;26612;-63
2022/07/27 05:46:05;;;;;;;;;;;;;;;22.53;42.24;100555.48;1708594;83;25777;-63
2022/07/27 05:48:35;;;;;;;;;;;;;;;22.60;42.13;100554.90;1707922;83;28492;-63
2022/07/27 05:51:02;;;;;;;;;;;;;;;22.68;42.19;100557.91;1709331;83;26212;-63
2022/07/27 05:53:28;;;;;;;;;;;;;;;22.76;42.21;100554.07;1711879;83;25781;-62
2022/07/27 05:55:55;;;;;;;;;;;;;;;22.82;42.12;100555.91;1707767;83;25810;-62
2022/07/27 05:58:21;;;;;;;;;;;;;;;22.87;41.81;100557.44;1717686;83;25503;-62
2022/07/27 06:00:48;;;;;;;;;;;;;;;22.93;41.76;100557.94;1709286;83;27406;-63
2022/07/27 06:03:15;;;;;;;;;;;;;;;23.03;41.79;100562.91;1705525;83;25789;-62
2022/07/27 06:05:43;;;;;;;;;;;;;;;23.09;41.64;100565.29;1702288;83;25851;-63
2022/07/27 06:08:10;;;;;;;;;;;;;;;23.16;41.21;100559.75;1709022;83;25793;-63
2022/07/27 06:10:39;;;;;;;;;;;;;;;23.22;41.24;100562.98;1708367;83;26021;-62
2022/07/27 06:13:07;;;;;;;;;;;;;;;23.31;41.15;100558.89;1707855;83;27560;-63
2022/07/27 06:15:34;;;;;;;;;;;;;;;23.42;40.86;100562.27;1708986;83;25827;-63
2022/07/27 06:18:02;;;;;;;;;;;;;;;23.53;40.91;100566.70;1707667;83;25604;-63
2022/07/27 06:20:30;;;;;;;;;;;;;;;23.61;40.99;100565.03;1707003;83;26531;-63
2022/07/27 06:23:02;;;;;;;;;;;;;;;23.69;40.77;100563.36;1710205;83;25765;-62
2022/07/27 06:25:29;;;;;;;;;;;;;;;23.80;40.55;100567.78;1708488;82;26987;-63
2022/07/27 06:27:56;;;;;;;;;;;;;;;23.90;40.22;100567.54;1717069;82;25776;-62
2022/07/27 06:30:23;;;;;;;;;;;;;;;24.03;40.05;100565.71;1715583;82;25763;-63
2022/07/27 06:32:49;;;;;;;;;;;;;;;24.12;38.90;100560.20;1724924;82;25852;-62
2022/07/27 06:35:16;;;;;;;;;;;;;;;24.20;37.20;100561.80;1738555;82;25833;-63
2022/07/27 06:37:43;;;;;;;;;;;;;;;24.33;37.78;100564.38;1740040;82;27487;-63
2022/07/27 06:40:12;;;;;;;;;;;;;;;24.53;37.80;100559.11;1737523;82;25461;-63
2022/07/27 06:42:41;;;;;;;;;;;;;;;24.66;38.54;100561.66;1716900;82;25882;-58
2022/07/27 06:45:10;;;;;;;;;;;;;;;24.75;39.01;100563.55;1708590;83;25971;-62
2022/07/27 06:47:39;;;;;;;;;;;;;;;24.79;39.95;100559.80;1721210;82;25807;-62
2022/07/27 06:50:08;;;;;;;;;;;;;;;24.84;40.18;100563.52;1717128;81;27523;-63
2022/07/27 06:52:34;;;;;;;;;;;;;;;24.90;42.04;100557.61;1719786;82;25947;-63
2022/07/27 06:55:01;;;;;;;;;;;;;;;24.94;42.51;100567.60;1713932;82;25726;-62
2022/07/27 06:57:27;;;;;;;;;;;;;;;24.96;42.99;100566.31;1713989;82;27004;-62
2022/07/27 06:59:54;;;;;;;;;;;;;;;25.02;43.03;100571.38;1717097;82;25861;-63
2022/07/27 07:02:21;;;;;;;;;;;;;;;25.07;43.80;100572.89;1721880;82;27647;-63
2022/07/27 07:04:47;;;;;;;;;;;;;;;25.13;43.09;100565.05;1717482;82;25856;-63
2022/07/27 07:07:14;;;;;;;;;;;;;;;25.25;42.86;100561.47;1694413;82;25829;-63
2022/07/27 07:09:40;;;;;;;;;;;;;;;25.36;42.60;100558.41;1721807;82;25834;-63
2022/07/27 07:12:06;;;;;;;;;;;;;;;25.44;42.37;100567.19;1721690;82;25790;-62
2022/07/27 07:14:33;;;;;;;;;;;;;;;25.52;42.26;100567.90;1714683;83;27425;-62
2022/07/27 07:17:00;;;;;;;;;;;;;;;25.60;41.92;100566.15;1714791;82;25737;-63
2022/07/27 07:19:27;;;;;;;;;;;;;;;25.68;41.58;100565.77;1714948;82;25708;-63
2022/07/27 07:21:54;;;;;;;;;;;;;;;25.81;41.47;100563.29;1714181;82;25812;-62
2022/07/27 07:24:21;;;;;;;;;;;;;;;25.98;40.05;100571.65;1715032;83;26270;-63
2022/07/27 07:26:48;;;;;;;;;;;;;;;26.09;39.98;100578.23;1714596;82;27722;-62
2022/07/27 07:29:15;;;;;;;;;;;;;;;26.18;39.37;100576.77;1714550;82;25759;-63
2022/07/27 07:31:42;;;;;;;;;;;;;;;26.29;39.75;100578.34;1724407;82;25745;-62
2022/07/27 07:34:08;;;;;;;;;;;;;;;26.39;39.51;100571.65;1715207;82;25861;-62
2022/07/27 07:36:34;;;;;;;;;;;;;;;26.52;39.68;100574.64;1710091;83;25769;-64
2022/07/27 07:39:02;;;;;;;;;;;;;;;26.65;39.68;100581.22;1707036;84;28576;-63
2022/07/27 07:41:28;;;;;;;;;;;;;;;26.76;39.41;100569.80;1706714;83;25739;-63
2022/07/27 07:43:55;;;;;;;;;;;;;;;26.85;39.68;100580.76;1714454;82;26126;-63
2022/07/27 07:46:21;;;;;;;;;;;;;;;26.96;39.39;100580.41;1713086;83;25792;-63
2022/07/27 07:48:48;;;;;;;;;;;;;;;27.09;39.47;100566.81;1718401;82;25728;-63
2022/07/27 07:51:14;;;;;;;;;;;;;;;27.23;38.84;100572.83;1728751;82;27484;-63
2022/07/27 07:53:40;;;;;;;;;;;;;;;27.26;38.91;100572.86;1750798;82;25772;-62
2022/07/27 07:56:07;;;;;;;;;;;;;;;27.29;39.17;100577.89;1714629;82;25708;-63
2022/07/27 07:58:34;;;;;;;;;;;;;;;27.39;39.74;100578.02;1714420;82;25810;-62
2022/07/27 08:01:00;;;;;;;;;;;;;;;27.54;39.79;100568.33;1713467;83;25744;-63
2022/07/27 08:03:27;;;;;;;;;;;;;;;27.70;40.10;100566.05;1711480;83;27475;-63
2022/07/27 08:05:54;;;;;;;;;;;;;;;27.78;40.62;100573.91;1711303;84;25700;-62
2022/07/27 08:08:21;;;;;;;;;;;;;;;27.95;40.82;100578.53;1711004;82;25814;-60
2022/07/27 08:10:47;;;;;;;;;;;;;;;27.97;40.05;100581.88;1732922;81;25810;-62
2022/07/27 08:13:14;;;;;;;;;;;;;;;28.07;40.24;100575.13;1740327;82;25802;-63
2022/07/27 08:15:40;;;;;;;;;;;;;;;28.14;40.09;100579.61;1732385;82;27488;-63
2022/07/27 08:18:08;;;;;;;;;;;;;;;28.16;38.89;100578.25;1718444;81;26020;-63
2022/07/27 08:20:34;;;;;;;;;;;;;;;28.25;39.78;100580.84;1714518;82;25415;-62
2022/07/27 08:23:02;;;;;;;;;;;;;;;28.37;39.89;100586.26;1715114;82;25843;-62
2022/07/27 08:25:29;;;;;;;;;;;;;;;28.55;39.62;100584.22;1707771;83;26437;-63
2022/07/27 08:27:55;;;;;;;;;;;;;;;28.67;39.27;100586.83;1719359;82;27394;-63
2022/07/27 08:30:24;;;;;;;;;;;;;;;28.81;38.93;100589.47;1739952;82;25784;-62
2022/07/27 08:32:59;;;;;;;;;;;;;;;28.94;39.36;100585.42;1735619;81;25757;-62
2022/07/27 08:35:27;;;;;;;;;;;;;;;29.04;38.97;100585.51;1690126;83;26011;-62
2022/07/27 08:37:54;;;;;;;;;;;;;;;29.12;39.23;100585.58;1686294;85;25749;-63
2022/07/27 08:40:20;;;;;;;;;;;;;;;29.26;38.76;100581.80;1717527;81;27435;-63
2022/07/27 08:42:47;;;;;;;;;;;;;;;29.42;38.70;100587.47;1739581;82;25589;-63
2022/07/27 08:45:17;;;;;;;;;;;;;;;29.54;38.16;100585.31;1737931;82;25762;-63
2022/07/27 08:47:47;;;;;;;;;;;;;;;29.65;37.75;100589.81;1711490;84;25758;-63
2022/07/27 08:50:22;;;;;;;;;;;;;;;29.77;37.66;100587.39;1724329;81;25717;-63
2022/07/27 08:52:55;;;;;;;;;;;;;;;29.86;37.87;100590.46;1738051;82;27464;-62
2022/07/27 08:55:22;;;;;;;;;;;;;;;30.00;37.29;100590.30;1691163;83;25435;-63
2022/07/27 08:57:50;;;;;;;;;;;;;;;30.15;37.34;100593.69;1714751;82;25769;-63
2022/07/27 09:00:18;;;;;;;;;;;;;;;30.30;37.42;100594.29;1727251;82;25875;-63
2022/07/27 09:02:45;;;;;;;;;;;;;;;30.49;36.83;100582.64;1739957;81;25573;-63
2022/07/27 09:05:12;;;;;;;;;;;;;;;30.56;36.56;100589.64;1740187;81;28224;-63
2022/07/27 09:07:39;;;;;;;;;;;;;;;30.67;36.93;100584.11;1739939;82;25864;-63
2022/07/27 09:10:07;;;;;;;;;;;;;;;30.85;36.71;100571.07;1735920;80;25701;-63
2022/07/27 09:12:34;;;;;;;;;;;;;;;31.04;35.95;100578.27;1686063;83;25776;-63
2022/07/27 09:15:07;;;;;;;;;;;;;;;31.17;36.32;100578.86;1686088;83;25769;-62
2022/07/27 09:17:35;;;;;;;;;;;;;;;31.36;35.44;100589.67;1702551;82;27648;-62
2022/07/27 09:20:05;;;;;;;;;;;;;;;31.48;35.61;100586.59;1738487;82;25777;-62
2022/07/27 09:22:49;;;;;;;;;;;;;;;31.67;34.65;100584.62;1739343;82;25721;-63
2022/07/27 09:25:18;;;;;;;;;;;;;;;31.75;34.54;100595.70;1698225;83;25943;-63
2022/07/27 09:27:47;;;;;;;;;;;;;;;31.88;34.63;100591.48;1718600;80;25839;-62
2022/07/27 09:30:17;;;;;;;;;;;;;;;31.99;34.54;100597.28;1719853;82;27627;-63
2022/07/27 09:33:01;;;;;;;;;;;;;;;32.24;34.57;100606.65;1719710;82;25885;-62
2022/07/27 09:35:34;;;;;;;;;;;;;;;32.47;33.93;100603.73;1719765;83;25848;-61
2022/07/27 09:38:21;;;;;;;;;;;;;;;32.69;33.11;100607.48;1719739;82;26736;-63
2022/07/27 09:41:00;;;;;;;;;;;;;;;32.80;33.56;100608.84;1711940;83;25767;-62
2022/07/27 09:43:27;;;;;;;;;;;;;;;33.00;33.46;100611.47;1704361;83;27464;-62
2022/07/27 09:45:54;;;;;;;;;;;;;;;33.36;33.36;100612.56;1708239;83;25758;-62
2022/07/27 09:48:23;;;;;;;;;;;;;;;33.48;33.11;100619.13;1716736;83;25749;-62
2022/07/27 09:51:01;;;;;;;;;;;;;;;33.39;33.06;100609.20;1716641;83;25784;-63
2022/07/27 09:53:35;;;;;;;;;;;;;;;33.13;33.48;100618.32;1716198;82;25708;-64
2022/07/27 09:56:05;;;;;;;;;;;;;;;33.00;34.13;100618.98;1719538;82;27492;-62
2022/07/27 09:58:40;;;;;;;;;;;;;;;32.76;34.39;100625.27;1720001;83;25725;-62
2022/07/27 10:01:13;;;;;;;;;;;;;;;32.98;34.43;100633.21;1719519;83;25777;-62
2022/07/27 10:03:42;;;;;;;;;;;;;;;33.18;34.47;100632.77;1719551;82;25875;-63
2022/07/27 10:06:10;;;;;;;;;;;;;;;33.53;33.85;100629.40;1720193;83;25802;-62
2022/07/27 10:08:44;;;;;;;;;;;;;;;33.62;33.64;100633.20;1719975;83;27461;-63
2022/07/27 10:11:12;;;;;;;;;;;;;;;33.52;33.89;100638.89;1719952;82;25756;-62
2022/07/27 10:13:39;;;;;;;;;;;;;;;33.74;33.37;100643.13;1719940;82;25821;-62
2022/07/27 10:16:07;;;;;;;;;;;;;;;33.95;33.06;100634.80;1719504;83;25816;-62
2022/07/27 10:18:57;;;;;;;;;;;;;;;34.24;33.14;100649.24;1719840;83;25724;-63
2022/07/27 10:21:24;;;;;;;;;;;;;;;34.70;31.95;100644.98;1719900;82;27616;-63
2022/07/27 10:24:02;;;;;;;;;;;;;;;35.07;31.35;100648.09;1720114;83;26361;-63
2022/07/27 10:26:35;;;;;;;;;;;;;;;34.74;31.51;100662.00;1719907;82;25840;-62
2022/07/27 10:29:17;;;;;;;;;;;;;;;34.22;32.11;100655.68;1720033;82;25992;-63
2022/07/27 10:31:56;;;;;;;;;;;;;;;34.11;32.49;100651.38;1705466;82;25711;-63
2022/07/27 10:34:37;;;;;;;;;;;;;;;33.52;33.30;100658.41;1704728;83;27458;-63
2022/07/27 10:37:09;;;;;;;;;;;;;;;33.78;33.27;100661.77;1704705;84;26562;-62
2022/07/27 10:39:39;;;;;;;;;;;;;;;34.10;32.88;100656.12;1704811;82;25702;-63
2022/07/27 10:42:16;;;;;;;;;;;;;;;33.86;32.79;100668.13;1692570;83;27192;-63
2022/07/27 10:45:09;;;;;;;;;;;;;;;33.42;33.38;100673.29;1693502;83;25833;-62
2022/07/27 10:47:45;;;;;;;;;;;;;;;33.06;33.82;100672.98;1692650;83;27563;-63
2022/07/27 10:50:18;;;;;;;;;;;;;;;32.62;34.43;100666.85;1691222;85;26501;-63
2022/07/27 10:53:03;;;;;;;;;;;;;;;32.63;34.48;100674.09;1691211;85;25827;-62
2022/07/27 10:55:35;;;;;;;;;;;;;;;32.43;34.60;100670.86;1691175;84;25793;-63
2022/07/27 10:58:18;;;;;;;;;;;;;;;32.21;34.90;100677.60;1691426;84;25448;-62
2022/07/27 11:00:52;;;;;;;;;;;;;;;31.79;35.26;100678.28;1707229;83;27540;-62
2022/07/27 11:03:36;;;;;;;;;;;;;;;32.24;34.88;100674.83;1720287;82;25728;-61
2022/07/27 11:06:06;;;;;;;;;;;;;;;32.79;34.09;100687.41;1719992;83;25478;-63
2022/07/27 11:08:35;;;;;;;;;;;;;;;33.52;33.36;100670.95;1720097;83;25845;-63
2022/07/27 11:11:03;;;;;;;;;;;;;;;34.56;32.01;100672.02;1720040;82;25736;-63
2022/07/27 11:13:33;;;;;;;;;;;;;;;35.29;31.08;100671.74;1719834;83;27526;-63
2022/07/27 11:16:05;;;;;;;;;;;;;;;35.69;29.22;100665.19;1720107;83;25764;-63
2022/07/27 11:18:34;;;;;;;;;;;;;;;35.34;29.62;100668.88;1720192;83;25763;-63
2022/07/27 11:21:23;;;;;;;;;;;;;;;35.22;30.06;100671.58;1720160;82;25862;-62
2022/07/27 11:23:55;;;;;;;;;;;;;;;34.77;30.30;100671.15;1719999;83;25734;-62
2022/07/27 11:26:24;;;;;;;;;;;;;;;34.01;31.37;100681.63;1720152;83;27478;-62
2022/07/27 11:28:51;;;;;;;;;;;;;;;33.90;32.00;100683.70;1714697;82;25796;-62
2022/07/27 11:31:19;;;;;;;;;;;;;;;34.08;31.52;100679.88;1714719;83;25856;-63
2022/07/27 11:33:50;;;;;;;;;;;;;;;34.40;30.97;100676.43;1714786;83;26045;-62
2022/07/27 11:36:17;;;;;;;;;;;;;;;34.43;30.96;100679.18;1715118;83;26166;-62
2022/07/27 11:38:52;;;;;;;;;;;;;;;34.38;31.19;100677.29;1714868;83;27522;-62
2022/07/27 11:41:27;;;;;;;;;;;;;;;34.31;31.22;100675.41;1714992;83;25942;-62
2022/07/27 11:44:00;;;;;;;;;;;;;;;34.12;31.37;100677.59;1710539;83;25779;-62
2022/07/27 11:46:29;;;;;;;;;;;;;;;33.62;32.15;100677.02;1712206;82;25970;-63
2022/07/27 11:49:02;;;;;;;;;;;;;;;32.87;33.22;100691.51;1711312;84;25764;-62
2022/07/27 11:51:29;;;;;;;;;;;;;;;32.30;34.30;100691.80;1711506;83;27531;-62
2022/07/27 11:53:57;;;;;;;;;;;;;;;32.06;34.73;100690.19;1711334;84;25800;-62
2022/07/27 11:56:26;;;;;;;;;;;;;;;31.70;35.41;100682.75;1711504;83;25589;-62
2022/07/27 11:59:08;;;;;;;;;;;;;;;31.63;35.49;100682.18;1713753;81;25817;-62
2022/07/27 12:01:37;;;;;;;;;;;;;;;31.86;35.39;100688.30;1705055;82;25713;-62
2022/07/27 12:04:13;;;;;;;;;;;;;;;32.09;35.04;100682.10;1711136;84;28176;-62
2022/07/27 12:06:42;;;;;;;;;;;;;;;32.51;34.59;100683.33;1711268;84;25721;-62
2022/07/27 12:09:11;;;;;;;;;;;;;;;33.14;33.63;100679.91;1711058;82;25474;-62
2022/07/27 12:12:01;;;;;;;;;;;;;;;33.39;32.87;100677.50;1711693;83;25982;-63
2022/07/27 12:14:37;;;;;;;;;;;;;;;33.59;32.97;100678.98;1708084;83;25809;-63
2022/07/27 12:17:09;;;;;;;;;;;;;;;33.99;32.19;100679.14;1706628;84;28383;-63
2022/07/27 12:19:36;;;;;;;;;;;;;;;34.24;31.94;100686.11;1707045;84;25765;-63
2022/07/27 12:22:03;;;;;;;;;;;;;;;34.27;31.74;100684.95;1706669;84;25694;-62
2022/07/27 12:24:35;;;;;;;;;;;;;;;34.31;31.88;100694.37;1706763;84;25950;-62
2022/07/27 12:27:13;;;;;;;;;;;;;;;34.50;31.52;100687.20;1706391;82;25488;-62
2022/07/27 12:29:58;;;;;;;;;;;;;;;34.47;31.06;100690.03;1708608;83;27549;-63
2022/07/27 12:32:27;;;;;;;;;;;;;;;34.43;31.12;100689.77;1709461;82;26005;-63
2022/07/27 12:34:57;;;;;;;;;;;;;;;34.11;31.31;100685.69;1709263;84;25743;-63
2022/07/27 12:37:31;;;;;;;;;;;;;;;33.67;32.04;100686.13;1709596;83;25953;-63
2022/07/27 12:39:58;;;;;;;;;;;;;;;33.51;32.32;100682.69;1709296;84;25727;-62
2022/07/27 12:42:33;;;;;;;;;;;;;;;33.25;32.62;100689.00;1706172;83;28149;-62
2022/07/27 12:45:12;;;;;;;;;;;;;;;32.96;33.02;100693.14;1705325;82;25840;-62